sensor_id;sensor_type;location;lat;lon;timestamp;pressure;altitude;pressure_sealevel;temperature;humidity
21203;BME280;10759;51.982;9.232;2023-04-25T00:00:27;99523.28;;;8.02;90.49
21203;BME280;10759;51.982;9.232;2023-04-25T00:02:55;99521.97;;;8.12;89.64
21203;BME280;10759;51.982;9.232;2023-04-25T00:05:25;99488.34;;;8.08;89.60
21203;BME280;10759;51.982;9.232;2023-04-25T00:07:53;99532.91;;;8.06;90.68
21203;BME280;10759;51.982;9.232;2023-04-25T00:10:21;99526.94;;;8.21;90.49
21203;BME280;10759;51.982;9.232;2023-04-25T00:12:50;99526.06;;;8.43;89.10
21203;BME280;10759;51.982;9.232;2023-04-25T00:15:18;99522.41;;;8.23;90.16
21203;BME280;10759;51.982;9.232;2023-04-25T00:17:46;99527.44;;;8.09;91.10
21203;BME280;10759;51.982;9.232;2023-04-25T00:20:14;99466.53;;;7.76;91.53
21203;BME280;10759;51.982;9.232;2023-04-25T00:22:42;99531.78;;;8.11;91.34
21203;BME280;10759;51.982;9.232;2023-04-25T00:25:10;99506.84;;;8.12;90.34
21203;BME280;10759;51.982;9.232;2023-04-25T00:27:38;99521.97;;;8.12;91.32
21203;BME280;10759;51.982;9.232;2023-04-25T00:30:10;99527.94;;;8.18;91.03
21203;BME280;10759;51.982;9.232;2023-04-25T00:32:39;99518.38;;;8.13;91.93
21203;BME280;10759;51.982;9.232;2023-04-25T00:35:07;99528.16;;;8.34;91.57
21203;BME280;10759;51.982;9.232;2023-04-25T00:37:35;99528.44;;;8.06;92.64
21203;BME280;10759;51.982;9.232;2023-04-25T00:40:05;99483.78;;;7.89;92.16
21203;BME280;10759;51.982;9.232;2023-04-25T00:42:35;99502.63;;;7.85;93.16
21203;BME280;10759;51.982;9.232;2023-04-25T00:45:05;99515.41;;;7.99;92.60
21203;BME280;10759;51.982;9.232;2023-04-25T00:47:36;99521.13;;;7.89;93.47
21203;BME280;10759;51.982;9.232;2023-04-25T00:50:05;99516.78;;;7.87;94.42
21203;BME280;10759;51.982;9.232;2023-04-25T00:52:33;99519.25;;;7.91;93.44
21203;BME280;10759;51.982;9.232;2023-04-25T00:55:01;99503.88;;;7.76;92.77
21203;BME280;10759;51.982;9.232;2023-04-25T00:57:29;99510.22;;;7.95;93.54
21203;BME280;10759;51.982;9.232;2023-04-25T00:59:57;99504.13;;;7.92;93.63
21203;BME280;10759;51.982;9.232;2023-04-25T01:02:27;99507.03;;;7.86;94.24
21203;BME280;10759;51.982;9.232;2023-04-25T01:04:57;99506.09;;;7.87;95.77
21203;BME280;10759;51.982;9.232;2023-04-25T01:07:25;99499.91;;;7.86;96.26
21203;BME280;10759;51.982;9.232;2023-04-25T01:09:53;99502.22;;;7.95;96.52
21203;BME280;10759;51.982;9.232;2023-04-25T01:12:22;99490.84;;;7.90;97.14
21203;BME280;10759;51.982;9.232;2023-04-25T01:14:50;99412.59;;;7.47;97.54
21203;BME280;10759;51.982;9.232;2023-04-25T01:17:19;99509.63;;;7.87;98.88
21203;BME280;10759;51.982;9.232;2023-04-25T01:19:48;99517.75;;;7.84;99.97
21203;BME280;10759;51.982;9.232;2023-04-25T01:22:18;99489.19;;;7.88;99.32
21203;BME280;10759;51.982;9.232;2023-04-25T01:24:47;99505.78;;;7.94;98.83
21203;BME280;10759;51.982;9.232;2023-04-25T01:27:16;99502.56;;;7.86;99.50
21203;BME280;10759;51.982;9.232;2023-04-25T01:29:45;99508.59;;;7.91;99.36
21203;BME280;10759;51.982;9.232;2023-04-25T01:32:13;99497.22;;;7.64;100.00
21203;BME280;10759;51.982;9.232;2023-04-25T01:34:42;99508.06;;;7.60;100.00
21203;BME280;10759;51.982;9.232;2023-04-25T01:37:10;99514.97;;;7.65;100.00
21203;BME280;10759;51.982;9.232;2023-04-25T01:39:39;99485.19;;;7.54;100.00
21203;BME280;10759;51.982;9.232;2023-04-25T01:42:07;99512.38;;;7.64;100.00
21203;BME280;10759;51.982;9.232;2023-04-25T01:44:35;99513.06;;;7.69;100.00
21203;BME280;10759;51.982;9.232;2023-04-25T01:47:04;99516.03;;;7.61;100.00
21203;BME280;10759;51.982;9.232;2023-04-25T01:49:32;99515.91;;;7.64;100.00
21203;BME280;10759;51.982;9.232;2023-04-25T01:52:00;99514.00;;;7.68;100.00
21203;BME280;10759;51.982;9.232;2023-04-25T01:54:28;99523.28;;;7.80;100.00
21203;BME280;10759;51.982;9.232;2023-04-25T01:56:58;99521.75;;;7.74;100.00
21203;BME280;10759;51.982;9.232;2023-04-25T01:59:26;99524.28;;;7.77;100.00
21203;BME280;10759;51.982;9.232;2023-04-25T02:02:10;99487.97;;;7.29;100.00
21203;BME280;10759;51.982;9.232;2023-04-25T02:04:38;99469.63;;;7.21;100.00
21203;BME280;10759;51.982;9.232;2023-04-25T02:07:06;99506.72;;;7.49;100.00
21203;BME280;10759;51.982;9.232;2023-04-25T02:09:50;99520.53;;;7.59;100.00
21203;BME280;10759;51.982;9.232;2023-04-25T02:12:20;99523.94;;;7.63;100.00
21203;BME280;10759;51.982;9.232;2023-04-25T02:15:00;99529.06;;;7.69;100.00
21203;BME280;10759;51.982;9.232;2023-04-25T02:17:47;99532.84;;;7.85;100.00
21203;BME280;10759;51.982;9.232;2023-04-25T02:20:15;99524.16;;;7.58;100.00
21203;BME280;10759;51.982;9.232;2023-04-25T02:22:43;99529.75;;;7.50;100.00
21203;BME280;10759;51.982;9.232;2023-04-25T02:25:11;99520.59;;;7.58;100.00
21203;BME280;10759;51.982;9.232;2023-04-25T02:27:41;99457.59;;;7.33;100.00
21203;BME280;10759;51.982;9.232;2023-04-25T02:30:10;99536.06;;;7.71;100.00
21203;BME280;10759;51.982;9.232;2023-04-25T02:32:38;99537.34;;;7.61;100.00
21203;BME280;10759;51.982;9.232;2023-04-25T02:35:06;99533.03;;;7.81;100.00
21203;BME280;10759;51.982;9.232;2023-04-25T02:37:36;99504.38;;;7.64;100.00
21203;BME280;10759;51.982;9.232;2023-04-25T02:40:06;99533.78;;;7.84;100.00
21203;BME280;10759;51.982;9.232;2023-04-25T02:42:35;99539.16;;;7.61;100.00
21203;BME280;10759;51.982;9.232;2023-04-25T02:45:05;99525.13;;;7.78;100.00
21203;BME280;10759;51.982;9.232;2023-04-25T02:47:33;99524.34;;;7.76;100.00
21203;BME280;10759;51.982;9.232;2023-04-25T02:50:01;99538.88;;;7.90;100.00
21203;BME280;10759;51.982;9.232;2023-04-25T02:52:29;99533.78;;;7.84;100.00
21203;BME280;10759;51.982;9.232;2023-04-25T02:55:07;99541.09;;;7.79;100.00
21203;BME280;10759;51.982;9.232;2023-04-25T02:57:37;99540.97;;;7.82;100.00
21203;BME280;10759;51.982;9.232;2023-04-25T03:00:09;99552.75;;;7.77;100.00
21203;BME280;10759;51.982;9.232;2023-04-25T03:02:40;99549.53;;;7.90;100.00
21203;BME280;10759;51.982;9.232;2023-04-25T03:05:08;99528.78;;;7.75;100.00
21203;BME280;10759;51.982;9.232;2023-04-25T03:07:37;99552.88;;;7.73;100.00
21203;BME280;10759;51.982;9.232;2023-04-25T03:10:09;99573.56;;;7.67;100.00
21203;BME280;10759;51.982;9.232;2023-04-25T03:12:37;99576.06;;;7.71;100.00
21203;BME280;10759;51.982;9.232;2023-04-25T03:15:06;99577.59;;;7.31;100.00
21203;BME280;10759;51.982;9.232;2023-04-25T03:17:36;99577.63;;;7.30;100.00
21203;BME280;10759;51.982;9.232;2023-04-25T03:20:05;99576.06;;;7.24;100.00
21203;BME280;10759;51.982;9.232;2023-04-25T03:22:35;99564.66;;;7.21;100.00
21203;BME280;10759;51.982;9.232;2023-04-25T03:25:05;99523.81;;;6.97;100.00
21203;BME280;10759;51.982;9.232;2023-04-25T03:27:34;99579.47;;;7.28;100.00
21203;BME280;10759;51.982;9.232;2023-04-25T03:30:02;99540.25;;;7.08;100.00
21203;BME280;10759;51.982;9.232;2023-04-25T03:32:30;99574.59;;;7.16;100.00
21203;BME280;10759;51.982;9.232;2023-04-25T03:34:59;99574.16;;;7.28;100.00
21203;BME280;10759;51.982;9.232;2023-04-25T03:37:27;99525.09;;;7.10;100.00
21203;BME280;10759;51.982;9.232;2023-04-25T03:39:55;99586.31;;;7.35;100.00
21203;BME280;10759;51.982;9.232;2023-04-25T03:42:30;99570.47;;;7.32;100.00
21203;BME280;10759;51.982;9.232;2023-04-25T03:44:58;99569.75;;;7.27;100.00
21203;BME280;10759;51.982;9.232;2023-04-25T03:47:26;99581.84;;;7.36;100.00
21203;BME280;10759;51.982;9.232;2023-04-25T03:49:54;99563.09;;;7.15;100.00
21203;BME280;10759;51.982;9.232;2023-04-25T03:52:24;99596.41;;;7.50;100.00
21203;BME280;10759;51.982;9.232;2023-04-25T03:54:52;99584.03;;;7.49;100.00
21203;BME280;10759;51.982;9.232;2023-04-25T03:57:23;99596.16;;;7.58;100.00
21203;BME280;10759;51.982;9.232;2023-04-25T03:59:52;99591.91;;;7.52;100.00
21203;BME280;10759;51.982;9.232;2023-04-25T04:02:21;99579.31;;;7.32;100.00
21203;BME280;10759;51.982;9.232;2023-04-25T04:04:51;99593.88;;;7.47;100.00
21203;BME280;10759;51.982;9.232;2023-04-25T04:07:20;99559.31;;;7.21;100.00
21203;BME280;10759;51.982;9.232;2023-04-25T04:09:54;99597.50;;;7.45;100.00
21203;BME280;10759;51.982;9.232;2023-04-25T04:12:27;99602.56;;;7.52;100.00
21203;BME280;10759;51.982;9.232;2023-04-25T04:14:55;99612.22;;;7.55;100.00
21203;BME280;10759;51.982;9.232;2023-04-25T04:17:23;99614.59;;;7.63;100.00
21203;BME280;10759;51.982;9.232;2023-04-25T04:19:51;99615.38;;;7.66;100.00
21203;BME280;10759;51.982;9.232;2023-04-25T04:22:20;99609.06;;;7.69;100.00
21203;BME280;10759;51.982;9.232;2023-04-25T04:24:49;99626.00;;;7.68;100.00
21203;BME280;10759;51.982;9.232;2023-04-25T04:27:34;99625.00;;;7.70;100.00
21203;BME280;10759;51.982;9.232;2023-04-25T04:30:21;99586.69;;;7.49;100.00
21203;BME280;10759;51.982;9.232;2023-04-25T04:32:56;99618.91;;;7.67;100.00
21203;BME280;10759;51.982;9.232;2023-04-25T04:35:24;99628.06;;;7.83;100.00
21203;BME280;10759;51.982;9.232;2023-04-25T04:37:53;99620.38;;;7.76;100.00
21203;BME280;10759;51.982;9.232;2023-04-25T04:40:23;99641.59;;;7.79;100.00
21203;BME280;10759;51.982;9.232;2023-04-25T04:43:12;99636.47;;;7.72;100.00
21203;BME280;10759;51.982;9.232;2023-04-25T04:46:07;99646.78;;;7.82;100.00
21203;BME280;10759;51.982;9.232;2023-04-25T04:49:09;99650.00;;;7.68;100.00
21203;BME280;10759;51.982;9.232;2023-04-25T04:51:55;99658.38;;;7.57;100.00
21203;BME280;10759;51.982;9.232;2023-04-25T04:54:34;99657.31;;;7.38;100.00
21203;BME280;10759;51.982;9.232;2023-04-25T04:57:27;99659.69;;;7.45;98.84
21203;BME280;10759;51.982;9.232;2023-04-25T05:00:17;99662.78;;;7.09;98.15
21203;BME280;10759;51.982;9.232;2023-04-25T05:03:08;99642.00;;;6.94;99.76
21203;BME280;10759;51.982;9.232;2023-04-25T05:05:56;99669.56;;;7.18;98.77
21203;BME280;10759;51.982;9.232;2023-04-25T05:08:50;99680.56;;;7.34;100.00
21203;BME280;10759;51.982;9.232;2023-04-25T05:11:35;99682.50;;;7.29;100.00
21203;BME280;10759;51.982;9.232;2023-04-25T05:14:12;99690.56;;;7.27;100.00
21203;BME280;10759;51.982;9.232;2023-04-25T05:16:57;99650.28;;;7.12;100.00
21203;BME280;10759;51.982;9.232;2023-04-25T05:19:40;99595.97;;;6.89;99.90
21203;BME280;10759;51.982;9.232;2023-04-25T05:22:22;99686.47;;;7.42;98.66
21203;BME280;10759;51.982;9.232;2023-04-25T05:25:09;99677.78;;;7.37;98.88
21203;BME280;10759;51.982;9.232;2023-04-25T05:27:55;99696.03;;;7.48;98.50
21203;BME280;10759;51.982;9.232;2023-04-25T05:30:40;99697.50;;;7.57;98.68
21203;BME280;10759;51.982;9.232;2023-04-25T05:33:15;99700.38;;;7.50;98.06
21203;BME280;10759;51.982;9.232;2023-04-25T05:35:44;99699.19;;;7.59;98.82
21203;BME280;10759;51.982;9.232;2023-04-25T05:38:13;99709.03;;;7.57;98.88
21203;BME280;10759;51.982;9.232;2023-04-25T05:40:59;99712.31;;;7.40;97.69
21203;BME280;10759;51.982;9.232;2023-04-25T05:44:06;99705.94;;;7.44;98.74
21203;BME280;10759;51.982;9.232;2023-04-25T05:46:49;99725.00;;;7.59;99.18
21203;BME280;10759;51.982;9.232;2023-04-25T05:49:28;99714.88;;;7.68;96.99
21203;BME280;10759;51.982;9.232;2023-04-25T05:51:58;99729.56;;;7.80;94.79
21203;BME280;10759;51.982;9.232;2023-04-25T05:54:41;99729.06;;;7.92;94.51
21203;BME280;10759;51.982;9.232;2023-04-25T05:57:19;99715.28;;;7.81;94.81
21203;BME280;10759;51.982;9.232;2023-04-25T05:59:47;99697.28;;;7.63;95.69
21203;BME280;10759;51.982;9.232;2023-04-25T06:02:16;99734.47;;;7.91;95.05
21203;BME280;10759;51.982;9.232;2023-04-25T06:04:46;99734.19;;;7.99;94.79
21203;BME280;10759;51.982;9.232;2023-04-25T06:07:14;99702.22;;;7.73;94.64
21203;BME280;10759;51.982;9.232;2023-04-25T06:09:42;99681.72;;;7.76;94.09
21203;BME280;10759;51.982;9.232;2023-04-25T06:12:10;99735.53;;;8.10;94.17
21203;BME280;10759;51.982;9.232;2023-04-25T06:14:38;99676.94;;;7.84;95.21
21203;BME280;10759;51.982;9.232;2023-04-25T06:17:07;99724.66;;;7.91;94.30
21203;BME280;10759;51.982;9.232;2023-04-25T06:19:35;99742.88;;;8.04;93.93
21203;BME280;10759;51.982;9.232;2023-04-25T06:22:05;99748.91;;;8.09;94.23
21203;BME280;10759;51.982;9.232;2023-04-25T06:24:37;99754.34;;;8.29;95.00
21203;BME280;10759;51.982;9.232;2023-04-25T06:27:06;99746.47;;;8.26;94.89
21203;BME280;10759;51.982;9.232;2023-04-25T06:29:34;99755.13;;;8.33;93.94
21203;BME280;10759;51.982;9.232;2023-04-25T06:32:02;99746.66;;;8.22;93.37
21203;BME280;10759;51.982;9.232;2023-04-25T06:34:30;99749.03;;;8.29;92.67
21203;BME280;10759;51.982;9.232;2023-04-25T06:36:58;99700.44;;;7.98;92.84
21203;BME280;10759;51.982;9.232;2023-04-25T06:39:28;99747.28;;;8.28;92.90
21203;BME280;10759;51.982;9.232;2023-04-25T06:41:56;99763.75;;;8.63;93.52
21203;BME280;10759;51.982;9.232;2023-04-25T06:44:40;99756.53;;;8.67;92.62
21203;BME280;10759;51.982;9.232;2023-04-25T06:47:09;99770.19;;;8.59;89.46
21203;BME280;10759;51.982;9.232;2023-04-25T06:49:39;99765.75;;;8.58;90.43
21203;BME280;10759;51.982;9.232;2023-04-25T06:52:07;99723.16;;;8.55;89.31
21203;BME280;10759;51.982;9.232;2023-04-25T06:54:39;99770.66;;;8.69;86.78
21203;BME280;10759;51.982;9.232;2023-04-25T06:57:19;99768.50;;;8.78;85.46
21203;BME280;10759;51.982;9.232;2023-04-25T06:59:47;99782.78;;;8.77;85.46
21203;BME280;10759;51.982;9.232;2023-04-25T07:02:15;99736.19;;;8.39;85.09
21203;BME280;10759;51.982;9.232;2023-04-25T07:04:43;99787.63;;;8.68;82.90
21203;BME280;10759;51.982;9.232;2023-04-25T07:07:13;99784.91;;;8.69;85.90
21203;BME280;10759;51.982;9.232;2023-04-25T07:09:49;99788.78;;;8.84;86.14
21203;BME280;10759;51.982;9.232;2023-04-25T07:12:17;99796.09;;;8.79;84.32
21203;BME280;10759;51.982;9.232;2023-04-25T07:14:45;99775.75;;;8.53;83.66
21203;BME280;10759;51.982;9.232;2023-04-25T07:17:13;99785.78;;;8.92;86.19
21203;BME280;10759;51.982;9.232;2023-04-25T07:19:42;99801.66;;;8.73;84.80
21203;BME280;10759;51.982;9.232;2023-04-25T07:22:10;99800.25;;;8.64;82.11
21203;BME280;10759;51.982;9.232;2023-04-25T07:24:41;99773.41;;;8.20;83.69
21203;BME280;10759;51.982;9.232;2023-04-25T07:27:13;99803.88;;;8.40;83.81
21203;BME280;10759;51.982;9.232;2023-04-25T07:29:50;99809.06;;;8.43;84.56
21203;BME280;10759;51.982;9.232;2023-04-25T07:32:21;99818.72;;;8.47;84.93
21203;BME280;10759;51.982;9.232;2023-04-25T07:34:49;99819.59;;;8.47;85.15
21203;BME280;10759;51.982;9.232;2023-04-25T07:37:17;99819.28;;;8.55;84.20
21203;BME280;10759;51.982;9.232;2023-04-25T07:39:59;99803.41;;;8.52;80.68
21203;BME280;10759;51.982;9.232;2023-04-25T07:42:28;99801.84;;;8.21;80.84
21203;BME280;10759;51.982;9.232;2023-04-25T07:44:57;99826.47;;;8.53;81.40
21203;BME280;10759;51.982;9.232;2023-04-25T07:47:24;99834.97;;;8.64;81.43
21203;BME280;10759;51.982;9.232;2023-04-25T07:49:52;99828.63;;;8.67;81.57
21203;BME280;10759;51.982;9.232;2023-04-25T07:52:20;99835.44;;;8.52;81.18
21203;BME280;10759;51.982;9.232;2023-04-25T07:54:54;99830.88;;;8.54;80.87
21203;BME280;10759;51.982;9.232;2023-04-25T07:57:32;99832.66;;;8.55;81.40
21203;BME280;10759;51.982;9.232;2023-04-25T08:00:01;99836.84;;;8.84;82.81
21203;BME280;10759;51.982;9.232;2023-04-25T08:02:39;99836.88;;;9.06;81.24
21203;BME280;10759;51.982;9.232;2023-04-25T08:05:12;99824.31;;;9.08;79.26
21203;BME280;10759;51.982;9.232;2023-04-25T08:07:48;99851.06;;;9.08;80.19
21203;BME280;10759;51.982;9.232;2023-04-25T08:10:16;99842.22;;;9.06;79.53
21203;BME280;10759;51.982;9.232;2023-04-25T08:12:48;99855.69;;;9.25;79.08
21203;BME280;10759;51.982;9.232;2023-04-25T08:15:16;99859.25;;;9.26;76.41
21203;BME280;10759;51.982;9.232;2023-04-25T08:17:44;99777.63;;;8.73;77.18
21203;BME280;10759;51.982;9.232;2023-04-25T08:20:12;99829.91;;;9.02;77.97
21203;BME280;10759;51.982;9.232;2023-04-25T08:22:41;99859.50;;;9.41;77.45
21203;BME280;10759;51.982;9.232;2023-04-25T08:25:26;99840.72;;;9.43;76.41
21203;BME280;10759;51.982;9.232;2023-04-25T08:27:55;99859.69;;;9.57;73.43
21203;BME280;10759;51.982;9.232;2023-04-25T08:30:24;99772.16;;;8.98;75.00
21203;BME280;10759;51.982;9.232;2023-04-25T08:32:53;99862.47;;;9.56;71.97
21203;BME280;10759;51.982;9.232;2023-04-25T08:35:32;99863.09;;;9.62;70.90
21203;BME280;10759;51.982;9.232;2023-04-25T08:38:01;99844.69;;;9.33;64.61
21203;BME280;10759;51.982;9.232;2023-04-25T08:40:35;99876.66;;;9.36;67.38
21203;BME280;10759;51.982;9.232;2023-04-25T08:43:13;99867.56;;;9.40;65.58
21203;BME280;10759;51.982;9.232;2023-04-25T08:45:42;99867.06;;;9.30;61.66
21203;BME280;10759;51.982;9.232;2023-04-25T08:48:16;99882.09;;;9.55;62.69
21203;BME280;10759;51.982;9.232;2023-04-25T08:50:50;99871.31;;;9.14;60.80
21203;BME280;10759;51.982;9.232;2023-04-25T08:53:26;99896.09;;;9.61;62.30
21203;BME280;10759;51.982;9.232;2023-04-25T08:56:00;99885.16;;;10.08;59.67
21203;BME280;10759;51.982;9.232;2023-04-25T08:58:35;99890.91;;;10.61;62.19
21203;BME280;10759;51.982;9.232;2023-04-25T09:01:03;99894.13;;;10.69;55.55
21203;BME280;10759;51.982;9.232;2023-04-25T09:03:39;99889.03;;;10.63;61.90
21203;BME280;10759;51.982;9.232;2023-04-25T09:06:09;99902.06;;;10.31;58.37
21203;BME280;10759;51.982;9.232;2023-04-25T09:08:37;99900.19;;;9.92;57.85
21203;BME280;10759;51.982;9.232;2023-04-25T09:11:07;99907.84;;;9.79;59.45
21203;BME280;10759;51.982;9.232;2023-04-25T09:13:37;99873.72;;;9.42;60.48
21203;BME280;10759;51.982;9.232;2023-04-25T09:16:22;99893.44;;;9.39;58.67
21203;BME280;10759;51.982;9.232;2023-04-25T09:19:21;99917.19;;;9.47;56.97
21203;BME280;10759;51.982;9.232;2023-04-25T09:22:11;99927.22;;;9.42;58.78
21203;BME280;10759;51.982;9.232;2023-04-25T09:24:41;99891.06;;;9.32;61.26
21203;BME280;10759;51.982;9.232;2023-04-25T09:27:11;99921.19;;;9.59;58.78
21203;BME280;10759;51.982;9.232;2023-04-25T09:29:41;99923.03;;;9.79;61.88
21203;BME280;10759;51.982;9.232;2023-04-25T09:32:13;99923.69;;;9.84;59.30
21203;BME280;10759;51.982;9.232;2023-04-25T09:34:43;99935.03;;;10.11;60.51
21203;BME280;10759;51.982;9.232;2023-04-25T09:37:20;99923.31;;;10.14;53.25
21203;BME280;10759;51.982;9.232;2023-04-25T09:40:08;99947.59;;;10.31;53.19
21203;BME280;10759;51.982;9.232;2023-04-25T09:42:54;99940.72;;;10.03;53.04
21203;BME280;10759;51.982;9.232;2023-04-25T09:45:25;99851.09;;;9.29;52.61
21203;BME280;10759;51.982;9.232;2023-04-25T09:47:55;99950.97;;;9.50;54.11
21203;BME280;10759;51.982;9.232;2023-04-25T09:50:29;99948.41;;;9.24;59.53
21203;BME280;10759;51.982;9.232;2023-04-25T09:53:06;99940.44;;;9.01;61.20
21203;BME280;10759;51.982;9.232;2023-04-25T09:55:55;99956.44;;;9.24;62.36
21203;BME280;10759;51.982;9.232;2023-04-25T09:58:25;99945.25;;;9.37;61.96
21203;BME280;10759;51.982;9.232;2023-04-25T10:01:02;99944.25;;;9.61;58.82
21203;BME280;10759;51.982;9.232;2023-04-25T10:03:40;99962.25;;;9.80;58.64
21203;BME280;10759;51.982;9.232;2023-04-25T10:06:24;99963.31;;;9.96;62.15
21203;BME280;10759;51.982;9.232;2023-04-25T10:08:53;99963.56;;;10.12;60.46
21203;BME280;10759;51.982;9.232;2023-04-25T10:11:24;99961.41;;;10.20;57.14
21203;BME280;10759;51.982;9.232;2023-04-25T10:13:52;99964.16;;;10.19;57.58
21203;BME280;10759;51.982;9.232;2023-04-25T10:16:21;99967.63;;;10.00;54.64
21203;BME280;10759;51.982;9.232;2023-04-25T10:18:50;99966.69;;;10.01;55.56
21203;BME280;10759;51.982;9.232;2023-04-25T10:21:20;99971.66;;;10.10;56.80
21203;BME280;10759;51.982;9.232;2023-04-25T10:23:49;99982.63;;;10.04;57.87
21203;BME280;10759;51.982;9.232;2023-04-25T10:26:18;99980.25;;;9.97;60.56
21203;BME280;10759;51.982;9.232;2023-04-25T10:28:58;99989.50;;;9.67;60.78
21203;BME280;10759;51.982;9.232;2023-04-25T10:31:29;99975.53;;;9.59;63.18
21203;BME280;10759;51.982;9.232;2023-04-25T10:33:59;99996.59;;;9.68;60.28
21203;BME280;10759;51.982;9.232;2023-04-25T10:36:31;99992.03;;;9.49;63.70
21203;BME280;10759;51.982;9.232;2023-04-25T10:39:03;99925.38;;;8.98;61.03
21203;BME280;10759;51.982;9.232;2023-04-25T10:41:46;100002.09;;;9.42;62.18
21203;BME280;10759;51.982;9.232;2023-04-25T10:44:14;99889.78;;;8.74;65.57
21203;BME280;10759;51.982;9.232;2023-04-25T10:46:44;100000.28;;;9.42;65.28
21203;BME280;10759;51.982;9.232;2023-04-25T10:49:29;100001.19;;;9.65;64.56
21203;BME280;10759;51.982;9.232;2023-04-25T10:52:27;99997.38;;;9.49;63.20
21203;BME280;10759;51.982;9.232;2023-04-25T10:54:57;99894.88;;;9.04;61.44
21203;BME280;10759;51.982;9.232;2023-04-25T10:57:30;99998.91;;;9.78;62.38
21203;BME280;10759;51.982;9.232;2023-04-25T11:00:00;99988.25;;;9.76;61.92
21203;BME280;10759;51.982;9.232;2023-04-25T11:02:37;99976.19;;;10.08;61.79
21203;BME280;10759;51.982;9.232;2023-04-25T11:05:06;99984.63;;;9.99;61.71
21203;BME280;10759;51.982;9.232;2023-04-25T11:07:38;100001.53;;;10.22;58.12
21203;BME280;10759;51.982;9.232;2023-04-25T11:10:06;99986.56;;;10.16;58.54
21203;BME280;10759;51.982;9.232;2023-04-25T11:12:35;99977.28;;;10.47;60.88
21203;BME280;10759;51.982;9.232;2023-04-25T11:15:04;99982.06;;;10.80;57.38
21203;BME280;10759;51.982;9.232;2023-04-25T11:17:33;99948.47;;;10.91;63.60
21203;BME280;10759;51.982;9.232;2023-04-25T11:20:02;99990.38;;;11.13;53.94
21203;BME280;10759;51.982;9.232;2023-04-25T11:22:34;99971.44;;;10.58;51.66
21203;BME280;10759;51.982;9.232;2023-04-25T11:25:05;99976.78;;;10.58;52.80
21203;BME280;10759;51.982;9.232;2023-04-25T11:27:34;99981.13;;;10.19;50.43
21203;BME280;10759;51.982;9.232;2023-04-25T11:30:14;99980.47;;;10.35;52.25
21203;BME280;10759;51.982;9.232;2023-04-25T11:32:44;99995.78;;;10.31;51.63
21203;BME280;10759;51.982;9.232;2023-04-25T11:35:13;99952.75;;;9.93;52.69
21203;BME280;10759;51.982;9.232;2023-04-25T11:37:42;99952.03;;;9.45;52.33
21203;BME280;10759;51.982;9.232;2023-04-25T11:40:10;100005.56;;;9.67;55.79
21203;BME280;10759;51.982;9.232;2023-04-25T11:42:41;100011.94;;;9.63;53.67
21203;BME280;10759;51.982;9.232;2023-04-25T11:45:11;100009.16;;;9.66;53.32
21203;BME280;10759;51.982;9.232;2023-04-25T11:47:39;100010.56;;;9.53;53.55
21203;BME280;10759;51.982;9.232;2023-04-25T11:50:09;100022.00;;;9.57;54.02
21203;BME280;10759;51.982;9.232;2023-04-25T11:52:38;100020.66;;;9.68;53.35
21203;BME280;10759;51.982;9.232;2023-04-25T11:55:07;100026.16;;;9.65;53.98
21203;BME280;10759;51.982;9.232;2023-04-25T11:57:51;100027.63;;;9.51;53.93
21203;BME280;10759;51.982;9.232;2023-04-25T12:00:20;100030.59;;;9.43;57.18
21203;BME280;10759;51.982;9.232;2023-04-25T12:02:51;100034.22;;;9.18;55.89
21203;BME280;10759;51.982;9.232;2023-04-25T12:05:24;100038.84;;;9.13;55.60
21203;BME280;10759;51.982;9.232;2023-04-25T12:08:09;100039.56;;;8.93;57.67
21203;BME280;10759;51.982;9.232;2023-04-25T12:10:40;100041.75;;;9.07;58.88
21203;BME280;10759;51.982;9.232;2023-04-25T12:13:21;100021.84;;;8.91;58.31
21203;BME280;10759;51.982;9.232;2023-04-25T12:15:49;100048.16;;;9.27;58.46
21203;BME280;10759;51.982;9.232;2023-04-25T12:18:19;100040.00;;;9.53;58.26
21203;BME280;10759;51.982;9.232;2023-04-25T12:20:48;100042.41;;;10.05;59.94
21203;BME280;10759;51.982;9.232;2023-04-25T12:23:16;100049.47;;;10.06;53.41
21203;BME280;10759;51.982;9.232;2023-04-25T12:25:44;99966.47;;;9.63;54.14
21203;BME280;10759;51.982;9.232;2023-04-25T12:28:15;100040.28;;;9.91;52.75
21203;BME280;10759;51.982;9.232;2023-04-25T12:30:58;100015.81;;;10.00;53.46
21203;BME280;10759;51.982;9.232;2023-04-25T12:33:28;100047.78;;;10.25;52.48
21203;BME280;10759;51.982;9.232;2023-04-25T12:35:58;99973.41;;;10.12;51.51
21203;BME280;10759;51.982;9.232;2023-04-25T12:38:29;100032.78;;;10.84;51.57
21203;BME280;10759;51.982;9.232;2023-04-25T12:40:58;100023.38;;;10.94;50.77
21203;BME280;10759;51.982;9.232;2023-04-25T12:43:26;100026.25;;;11.10;50.87
21203;BME280;10759;51.982;9.232;2023-04-25T12:45:55;100035.16;;;11.11;49.49
21203;BME280;10759;51.982;9.232;2023-04-25T12:48:23;99997.53;;;10.73;48.17
21203;BME280;10759;51.982;9.232;2023-04-25T12:50:51;100016.09;;;10.78;48.78
21203;BME280;10759;51.982;9.232;2023-04-25T12:53:21;100039.22;;;11.20;47.98
21203;BME280;10759;51.982;9.232;2023-04-25T12:55:50;100040.06;;;11.41;47.31
21203;BME280;10759;51.982;9.232;2023-04-25T12:58:18;100043.72;;;11.19;46.92
21203;BME280;10759;51.982;9.232;2023-04-25T13:00:46;100046.03;;;11.08;49.45
21203;BME280;10759;51.982;9.232;2023-04-25T13:03:14;100035.06;;;10.93;47.57
21203;BME280;10759;51.982;9.232;2023-04-25T13:05:43;100037.03;;;11.09;48.21
21203;BME280;10759;51.982;9.232;2023-04-25T13:08:11;100013.06;;;11.06;48.07
21203;BME280;10759;51.982;9.232;2023-04-25T13:10:40;100039.25;;;11.38;48.87
21203;BME280;10759;51.982;9.232;2023-04-25T13:13:08;100006.97;;;11.21;47.52
21203;BME280;10759;51.982;9.232;2023-04-25T13:15:36;100043.69;;;11.39;46.23
21203;BME280;10759;51.982;9.232;2023-04-25T13:18:04;100025.63;;;11.43;46.96
21203;BME280;10759;51.982;9.232;2023-04-25T13:20:33;100035.78;;;11.74;47.18
21203;BME280;10759;51.982;9.232;2023-04-25T13:23:01;99995.19;;;11.25;45.17
21203;BME280;10759;51.982;9.232;2023-04-25T13:25:29;100050.13;;;11.35;44.46
21203;BME280;10759;51.982;9.232;2023-04-25T13:27:58;100043.00;;;11.34;45.86
21203;BME280;10759;51.982;9.232;2023-04-25T13:30:26;100040.66;;;11.47;44.87